createdAt,value
2018-07-28T00:01:50.050Z,8.13
2018-07-28T00:04:18.477Z,8.20
2018-07-28T00:06:46.966Z,8.33
2018-07-28T00:09:15.559Z,7.97
2018-07-28T00:11:44.127Z,8.33
2018-07-28T00:14:12.619Z,7.90
2018-07-28T00:16:40.696Z,8.07
2018-07-28T00:19:09.154Z,8.90
2018-07-28T00:21:37.506Z,7.90
2018-07-28T00:24:05.916Z,8.20
2018-07-28T00:26:34.305Z,8.27
2018-07-28T00:29:02.674Z,8.60
2018-07-28T00:31:31.057Z,7.80
2018-07-28T00:33:59.476Z,7.90
2018-07-28T00:36:27.884Z,8.53
2018-07-28T00:38:55.909Z,7.90
2018-07-28T00:41:24.305Z,8.10
2018-07-28T00:43:52.681Z,8.70
2018-07-28T00:46:21.058Z,9.10
2018-07-28T00:48:49.446Z,8.20
2018-07-28T00:51:17.826Z,8.43
2018-07-28T00:53:45.880Z,8.50
2018-07-28T00:56:14.266Z,7.73
2018-07-28T00:58:42.724Z,8.13
2018-07-28T01:01:12.005Z,8.90
2018-07-28T01:03:40.980Z,9.93
2018-07-28T01:06:09.433Z,9.80
2018-07-28T01:08:37.882Z,10.23
2018-07-28T01:11:06.351Z,9.87
2018-07-28T01:13:34.839Z,10.27
2018-07-28T01:16:03.266Z,8.83
2018-07-28T01:18:31.791Z,8.80
2018-07-28T01:21:00.204Z,7.60
2018-07-28T01:23:28.637Z,9.10
2018-07-28T01:25:56.967Z,8.40
2018-07-28T01:28:25.311Z,9.23
2018-07-28T01:30:53.725Z,8.10
2018-07-28T01:33:22.077Z,8.57
2018-07-28T01:35:50.483Z,8.17
2018-07-28T01:38:18.839Z,8.00
2018-07-28T01:40:47.184Z,8.57
2018-07-28T01:43:15.534Z,7.93
2018-07-28T01:45:44.006Z,8.00
2018-07-28T01:48:12.526Z,7.90
2018-07-28T01:50:40.908Z,8.30
2018-07-28T01:53:09.288Z,7.80
2018-07-28T01:55:37.686Z,8.17
2018-07-28T01:58:06.069Z,7.90
2018-07-28T02:00:35.902Z,7.40
2018-07-28T02:03:04.010Z,8.00
2018-07-28T02:05:32.439Z,8.33
2018-07-28T02:08:00.897Z,8.50
2018-07-28T02:10:29.413Z,7.90
2018-07-28T02:12:58.266Z,8.17
2018-07-28T02:15:26.790Z,7.40
2018-07-28T02:17:55.396Z,7.93
2018-07-28T02:20:23.935Z,7.73
2018-07-28T02:22:52.511Z,7.30
2018-07-28T02:25:21.100Z,8.33
2018-07-28T02:27:49.912Z,8.63
2018-07-28T02:30:18.371Z,8.13
2018-07-28T02:32:46.906Z,8.47
2018-07-28T02:35:15.551Z,7.90
2018-07-28T02:37:44.006Z,8.50
2018-07-28T02:40:12.435Z,7.90
2018-07-28T02:42:40.810Z,8.23
2018-07-28T02:45:09.254Z,8.43
2018-07-28T02:47:37.930Z,8.00
2018-07-28T02:50:07.261Z,8.13
2018-07-28T02:52:36.067Z,7.80
2018-07-28T02:55:05.097Z,7.83
2018-07-28T02:57:33.582Z,8.13
2018-07-28T03:00:02.858Z,9.50
2018-07-28T03:02:31.348Z,8.63
2018-07-28T03:04:59.831Z,7.50
2018-07-28T03:07:28.316Z,8.37
2018-07-28T03:09:56.730Z,8.37
2018-07-28T03:12:25.375Z,8.20
2018-07-28T03:14:53.928Z,8.67
2018-07-28T03:17:22.437Z,8.33
2018-07-28T03:19:50.564Z,8.10
2018-07-28T03:22:19.277Z,8.23
2018-07-28T03:24:47.789Z,8.47
2018-07-28T03:27:16.258Z,8.73
2018-07-28T03:29:44.757Z,8.60
2018-07-28T03:32:13.160Z,7.77
2018-07-28T03:34:41.703Z,8.70
2018-07-28T03:37:10.132Z,7.90
2018-07-28T03:39:38.565Z,8.27
2018-07-28T03:42:06.979Z,9.30
2018-07-28T03:44:35.373Z,9.43
2018-07-28T03:47:03.872Z,8.43
2018-07-28T03:49:32.345Z,8.67
2018-07-28T03:52:00.749Z,8.63
2018-07-28T03:54:29.158Z,8.73
2018-07-28T03:56:57.545Z,8.60
2018-07-28T03:59:25.952Z,8.50
2018-07-28T04:01:54.389Z,8.67
2018-07-28T04:04:22.765Z,8.43
2018-07-28T04:06:51.123Z,8.83
2018-07-28T04:09:19.507Z,9.03
2018-07-28T04:11:47.914Z,7.87
2018-07-28T04:14:16.329Z,9.30
2018-07-28T04:16:44.715Z,8.40
2018-07-28T04:19:13.056Z,8.53
2018-07-28T04:21:41.448Z,8.17
2018-07-28T04:24:09.813Z,8.17
2018-07-28T04:26:38.210Z,8.97
2018-07-28T04:29:06.587Z,9.20
2018-07-28T04:31:35.020Z,9.30
2018-07-28T04:34:03.405Z,8.47
2018-07-28T04:36:31.876Z,8.07
2018-07-28T04:39:00.269Z,9.10
2018-07-28T04:41:28.710Z,9.17
2018-07-28T04:43:57.164Z,8.93
2018-07-28T04:46:25.505Z,8.77
2018-07-28T04:48:53.906Z,7.93
2018-07-28T04:51:22.418Z,8.20
2018-07-28T04:53:50.785Z,9.10
2018-07-28T04:56:19.246Z,8.97
2018-07-28T04:58:47.851Z,8.70
2018-07-28T05:01:16.253Z,7.77
2018-07-28T05:03:44.712Z,8.40
2018-07-28T05:06:13.137Z,8.80
2018-07-28T05:08:41.530Z,9.77
2018-07-28T05:11:09.919Z,8.70
2018-07-28T05:13:38.410Z,8.10
2018-07-28T05:16:06.861Z,8.50
2018-07-28T05:18:35.302Z,8.50
2018-07-28T05:21:03.774Z,8.10
2018-07-28T05:23:32.174Z,9.27
2018-07-28T05:26:00.627Z,8.40
2018-07-28T05:28:28.984Z,9.97
2018-07-28T05:30:57.341Z,8.80
2018-07-28T05:33:25.744Z,9.10
2018-07-28T05:35:54.295Z,9.37
2018-07-28T05:38:22.711Z,8.83
2018-07-28T05:40:51.109Z,9.60
2018-07-28T05:43:19.529Z,8.73
2018-07-28T05:45:48.123Z,9.63
2018-07-28T05:48:16.538Z,9.00
2018-07-28T05:50:44.910Z,9.00
2018-07-28T05:53:13.307Z,9.60
2018-07-28T05:55:41.717Z,9.00
2018-07-28T05:58:10.191Z,9.63
2018-07-28T06:00:38.618Z,8.93
2018-07-28T06:03:07.670Z,8.80
2018-07-28T06:05:37.411Z,8.63
2018-07-28T06:08:06.454Z,8.93
2018-07-28T06:10:34.876Z,8.53
2018-07-28T06:13:03.218Z,8.83
2018-07-28T06:15:31.659Z,8.73
2018-07-28T06:18:00.020Z,8.87
2018-07-28T06:20:28.397Z,9.37
2018-07-28T06:22:56.798Z,8.60
2018-07-28T06:25:25.201Z,9.80
2018-07-28T06:27:53.576Z,9.57
2018-07-28T06:30:22.030Z,9.60
2018-07-28T06:32:50.531Z,9.83
2018-07-28T06:35:18.934Z,10.43
2018-07-28T06:37:47.391Z,10.20
2018-07-28T06:40:15.765Z,10.90
2018-07-28T06:42:44.300Z,10.63
2018-07-28T06:45:12.710Z,10.40
2018-07-28T06:47:41.202Z,10.93
2018-07-28T06:50:09.570Z,10.33
2018-07-28T06:52:37.917Z,10.03
2018-07-28T06:55:06.521Z,9.60
2018-07-28T06:57:34.891Z,10.50
2018-07-28T07:00:03.377Z,9.20
2018-07-28T07:02:31.726Z,9.40
2018-07-28T07:05:00.089Z,9.40
2018-07-28T07:07:28.824Z,10.07
2018-07-28T07:09:57.174Z,9.87
2018-07-28T07:12:25.540Z,9.87
2018-07-28T07:14:53.939Z,9.10
2018-07-28T07:17:22.317Z,10.00
2018-07-28T07:19:50.784Z,9.50
2018-07-28T07:22:19.122Z,9.23
2018-07-28T07:24:47.546Z,9.60
2018-07-28T07:27:16.005Z,9.10
2018-07-28T07:29:44.493Z,9.00
2018-07-28T07:32:12.940Z,9.10
2018-07-28T07:34:41.366Z,9.37
2018-07-28T07:37:09.782Z,9.60
2018-07-28T07:39:38.145Z,8.93
2018-07-28T07:42:07.213Z,9.80
2018-07-28T07:44:35.658Z,9.13
2018-07-28T07:47:04.137Z,7.83
2018-07-28T07:49:32.622Z,9.17
2018-07-28T07:52:01.033Z,8.87
2018-07-28T07:54:29.417Z,8.70
2018-07-28T07:56:57.852Z,9.03
2018-07-28T07:59:26.291Z,8.80
2018-07-28T08:01:54.695Z,9.50
2018-07-28T08:04:23.076Z,8.70
2018-07-28T08:06:51.486Z,9.40
2018-07-28T08:09:19.938Z,9.80
2018-07-28T08:11:48.330Z,8.70
2018-07-28T08:14:16.689Z,8.93
2018-07-28T08:16:44.989Z,10.10
2018-07-28T08:19:13.461Z,9.47
2018-07-28T08:21:41.930Z,10.10
2018-07-28T08:24:10.039Z,8.57
2018-07-28T08:26:38.135Z,9.20
2018-07-28T08:29:06.515Z,9.47
2018-07-28T08:31:34.920Z,9.80
2018-07-28T08:34:03.342Z,9.03
2018-07-28T08:36:31.716Z,9.30
2018-07-28T08:39:00.090Z,9.57
2018-07-28T08:41:28.469Z,8.43
2018-07-28T08:43:56.932Z,8.30
2018-07-28T08:46:25.331Z,7.90
2018-07-28T08:48:53.772Z,8.20
2018-07-28T08:51:22.182Z,7.67
2018-07-28T08:53:50.338Z,8.80
2018-07-28T08:56:18.657Z,7.87
2018-07-28T08:58:46.701Z,9.17
2018-07-28T09:01:15.079Z,8.23
2018-07-28T09:03:43.386Z,7.50
2018-07-28T09:06:11.806Z,8.50
2018-07-28T09:08:40.203Z,8.70
2018-07-28T09:11:08.605Z,8.20
2018-07-28T09:13:36.990Z,7.87
2018-07-28T09:16:05.443Z,7.90
2018-07-28T09:18:33.932Z,8.30
2018-07-28T09:21:02.352Z,8.50
2018-07-28T09:23:30.701Z,7.77
2018-07-28T09:25:59.116Z,8.80
2018-07-28T09:28:27.511Z,9.00
2018-07-28T09:30:55.925Z,8.20
2018-07-28T09:33:24.290Z,7.87
2018-07-28T09:35:53.231Z,8.30
2018-07-28T09:38:21.558Z,11.33
2018-07-28T09:40:49.878Z,9.37
2018-07-28T09:43:18.725Z,8.00
2018-07-28T09:45:47.044Z,7.70
2018-07-28T09:48:15.489Z,8.30
2018-07-28T09:50:43.846Z,7.93
2018-07-28T09:53:12.202Z,8.60
2018-07-28T09:55:40.563Z,8.37
2018-07-28T09:58:08.966Z,8.40
2018-07-28T10:00:42.619Z,7.83
2018-07-28T10:03:10.975Z,7.93
2018-07-28T10:05:39.468Z,8.20
2018-07-28T10:08:07.786Z,8.03
2018-07-28T10:10:37.057Z,8.57
2018-07-28T10:13:05.458Z,7.30
2018-07-28T10:15:33.825Z,7.30
2018-07-28T10:18:02.231Z,6.70
2018-07-28T10:20:35.029Z,7.37
2018-07-28T10:23:03.525Z,6.20
2018-07-28T10:25:31.836Z,6.83
2018-07-28T10:28:00.470Z,7.00
2018-07-28T10:30:28.834Z,7.20
2018-07-28T10:32:57.213Z,6.40
2018-07-28T10:35:25.734Z,6.70
2018-07-28T10:37:54.135Z,5.63
2018-07-28T10:40:22.458Z,5.77
2018-07-28T10:42:50.821Z,6.43
2018-07-28T10:45:19.194Z,5.70
2018-07-28T10:47:47.573Z,5.97
2018-07-28T10:50:15.919Z,6.23
2018-07-28T10:52:44.242Z,5.90
2018-07-28T10:55:12.660Z,5.87
2018-07-28T10:57:41.044Z,5.90
2018-07-28T11:00:09.206Z,5.13
2018-07-28T11:02:37.549Z,5.83
2018-07-28T11:05:06.681Z,6.27
2018-07-28T11:07:35.204Z,6.10
2018-07-28T11:10:03.647Z,6.60
2018-07-28T11:12:32.014Z,5.83
2018-07-28T11:15:00.406Z,6.20
2018-07-28T11:17:28.773Z,6.27
2018-07-28T11:19:57.150Z,6.03
2018-07-28T11:22:25.486Z,5.83
2018-07-28T11:24:53.832Z,5.90
2018-07-28T11:27:22.182Z,7.00
2018-07-28T11:29:50.525Z,6.70
2018-07-28T11:32:30.124Z,6.77
2018-07-28T11:35:09.757Z,5.53
2018-07-28T11:38:01.962Z,6.50
2018-07-28T11:40:42.527Z,6.10
2018-07-28T11:43:22.242Z,5.50
2018-07-28T11:45:50.663Z,5.97
2018-07-28T11:48:19.037Z,5.97
2018-07-28T11:50:47.406Z,6.10
2018-07-28T11:53:15.801Z,6.30
2018-07-28T11:55:44.134Z,6.90
2018-07-28T11:58:12.582Z,6.83
2018-07-28T12:00:40.849Z,6.63
2018-07-28T12:03:09.217Z,6.20
2018-07-28T12:05:37.606Z,5.80
2018-07-28T12:08:06.055Z,6.00
2018-07-28T12:10:34.413Z,6.10
2018-07-28T12:13:02.781Z,5.87
2018-07-28T12:15:31.132Z,5.47
2018-07-28T12:17:59.475Z,6.17
2018-07-28T12:20:27.821Z,5.40
2018-07-28T12:22:56.230Z,6.33
2018-07-28T12:25:24.643Z,6.30
2018-07-28T12:27:54.029Z,6.27
2018-07-28T12:30:22.424Z,5.90
2018-07-28T12:32:50.782Z,5.33
2018-07-28T12:35:19.166Z,6.23
2018-07-28T12:37:47.547Z,5.60
2018-07-28T12:40:16.227Z,5.77
2018-07-28T12:42:44.605Z,5.00
2018-07-28T12:45:12.954Z,5.27
2018-07-28T12:47:41.319Z,5.07
2018-07-28T12:50:09.937Z,5.17
2018-07-28T12:52:38.331Z,5.07
2018-07-28T12:55:06.746Z,5.63
2018-07-28T12:57:35.077Z,5.20
2018-07-28T13:00:03.513Z,4.90
2018-07-28T13:02:31.906Z,5.27
2018-07-28T13:05:00.272Z,5.07
2018-07-28T13:07:28.654Z,5.60
2018-07-28T13:09:57.007Z,4.93
2018-07-28T13:12:25.419Z,4.80
2018-07-28T13:14:53.735Z,5.30
2018-07-28T13:17:22.111Z,5.23
2018-07-28T13:19:50.473Z,4.80
2018-07-28T13:22:18.885Z,5.33
2018-07-28T13:24:47.264Z,5.10
2018-07-28T13:27:15.676Z,5.70
2018-07-28T13:29:44.137Z,4.57
2018-07-28T13:32:12.453Z,5.27
2018-07-28T13:34:40.887Z,4.90
2018-07-28T13:37:09.235Z,5.07
2018-07-28T13:39:37.589Z,4.47
2018-07-28T13:42:05.967Z,4.13
2018-07-28T13:44:34.571Z,4.80
2018-07-28T13:47:02.967Z,5.67
2018-07-28T13:49:31.327Z,5.83
2018-07-28T13:51:59.714Z,6.80
2018-07-28T13:54:28.063Z,6.40
2018-07-28T13:56:56.391Z,6.27
2018-07-28T13:59:24.797Z,5.87
2018-07-28T14:01:53.177Z,6.27
2018-07-28T14:04:21.564Z,7.03
2018-07-28T14:06:49.911Z,6.83
2018-07-28T14:09:18.400Z,7.30
2018-07-28T14:11:46.491Z,7.70
2018-07-28T14:14:14.579Z,7.40
2018-07-28T14:16:43.001Z,8.03
2018-07-28T14:19:11.385Z,8.17
2018-07-28T14:21:39.710Z,8.63
2018-07-28T14:24:08.080Z,8.30
2018-07-28T14:26:36.538Z,7.20
2018-07-28T14:29:05.015Z,8.40
2018-07-28T14:31:33.365Z,7.87
2018-07-28T14:34:01.761Z,8.17
2018-07-28T14:36:30.085Z,14.93
2018-07-28T14:38:58.755Z,8.60
2018-07-28T14:41:27.115Z,7.30
2018-07-28T14:43:55.560Z,7.27
2018-07-28T14:46:23.941Z,7.97
2018-07-28T14:48:52.343Z,7.70
2018-07-28T14:51:20.665Z,6.90
2018-07-28T14:53:49.087Z,8.27
2018-07-28T14:56:17.461Z,6.87
2018-07-28T14:58:45.800Z,7.83
2018-07-28T15:01:14.146Z,8.10
2018-07-28T15:03:42.518Z,8.00
2018-07-28T15:06:11.113Z,7.40
2018-07-28T15:08:39.532Z,7.70
2018-07-28T15:11:07.998Z,8.23
2018-07-28T15:13:36.454Z,8.80
2018-07-28T15:16:04.877Z,9.40
2018-07-28T15:18:33.202Z,8.93
2018-07-28T15:21:01.522Z,8.90
2018-07-28T15:23:29.873Z,8.80
2018-07-28T15:25:58.380Z,9.70
2018-07-28T15:28:26.765Z,9.70
2018-07-28T15:30:55.228Z,10.13
2018-07-28T15:33:23.573Z,9.00
2018-07-28T15:35:52.013Z,9.70
2018-07-28T15:38:20.353Z,9.13
2018-07-28T15:40:48.800Z,9.10
2018-07-28T15:43:17.409Z,10.83
2018-07-28T15:45:45.782Z,8.50
2018-07-28T15:48:14.097Z,11.23
2018-07-28T15:50:42.505Z,9.53
2018-07-28T15:53:10.952Z,8.30
2018-07-28T15:55:39.009Z,8.80
2018-07-28T15:58:07.464Z,9.33
2018-07-28T16:00:35.753Z,8.40
2018-07-28T16:03:04.131Z,8.50
2018-07-28T16:05:32.465Z,8.20
2018-07-28T16:08:00.820Z,7.60
2018-07-28T16:10:29.185Z,7.73
2018-07-28T16:12:57.559Z,8.60
2018-07-28T16:15:25.905Z,7.87
2018-07-28T16:17:54.469Z,8.80
2018-07-28T16:20:22.894Z,9.73
2018-07-28T16:22:51.524Z,8.13
2018-07-28T16:25:19.845Z,9.87
2018-07-28T16:27:48.358Z,7.93
2018-07-28T16:30:16.619Z,7.47
2018-07-28T16:32:45.017Z,8.17
2018-07-28T16:35:13.401Z,9.47
2018-07-28T16:37:41.763Z,8.20
2018-07-28T16:40:10.203Z,10.07
2018-07-28T16:42:43.140Z,7.47
2018-07-28T16:45:11.589Z,6.90
2018-07-28T16:47:39.938Z,8.47
2018-07-28T16:50:08.480Z,7.87
2018-07-28T16:52:36.817Z,6.73
2018-07-28T16:55:05.340Z,6.60
2018-07-28T16:57:33.717Z,8.43
2018-07-28T17:00:02.112Z,6.80
2018-07-28T17:02:30.494Z,7.90
2018-07-28T17:04:58.838Z,6.90
2018-07-28T17:07:27.170Z,6.00
2018-07-28T17:09:55.649Z,8.20
2018-07-28T17:12:24.074Z,6.57
2018-07-28T17:14:52.442Z,6.70
2018-07-28T17:17:20.830Z,7.07
2018-07-28T17:19:49.438Z,6.60
2018-07-28T17:22:18.093Z,6.43
2018-07-28T17:24:46.529Z,6.20
2018-07-28T17:27:14.863Z,6.20
2018-07-28T17:29:43.245Z,6.63
2018-07-28T17:32:11.622Z,6.53
2018-07-28T17:34:39.987Z,6.27
2018-07-28T17:37:08.423Z,6.00
2018-07-28T17:39:36.778Z,6.43
2018-07-28T17:42:05.175Z,6.27
2018-07-28T17:44:33.530Z,6.80
2018-07-28T17:47:01.888Z,5.70
2018-07-28T17:49:30.261Z,7.03
2018-07-28T17:51:58.653Z,6.20
2018-07-28T17:54:27.009Z,5.67
2018-07-28T17:56:55.392Z,6.13
2018-07-28T17:59:23.733Z,5.53
2018-07-28T18:01:52.118Z,5.73
2018-07-28T18:04:20.545Z,5.90
2018-07-28T18:06:48.955Z,6.20
2018-07-28T18:09:17.318Z,6.00
2018-07-28T18:11:45.757Z,5.33
2018-07-28T18:14:14.165Z,6.40
2018-07-28T18:16:42.545Z,5.37
2018-07-28T18:19:10.965Z,5.63
2018-07-28T18:21:39.323Z,6.33
2018-07-28T18:24:07.464Z,5.50
2018-07-28T18:26:35.952Z,6.00
2018-07-28T18:29:04.425Z,5.80
2018-07-28T18:31:32.765Z,5.50
2018-07-28T18:34:01.116Z,6.13
2018-07-28T18:36:29.423Z,5.90
2018-07-28T18:38:57.825Z,5.53
2018-07-28T18:41:26.171Z,5.37
2018-07-28T18:43:54.572Z,5.50
2018-07-28T18:46:22.962Z,5.30
2018-07-28T18:48:51.383Z,4.30
2018-07-28T18:51:19.697Z,5.60
2018-07-28T18:53:48.116Z,5.80
2018-07-28T18:56:16.510Z,5.20
2018-07-28T18:58:44.903Z,5.87
2018-07-28T19:01:13.399Z,4.87
2018-07-28T19:03:41.774Z,5.80
2018-07-28T19:06:10.308Z,4.87
2018-07-28T19:08:38.682Z,5.90
2018-07-28T19:11:07.589Z,5.13
2018-07-28T19:14:45.005Z,4.97
2018-07-28T19:17:13.476Z,4.63
2018-07-28T19:19:41.884Z,5.27
2018-07-28T19:22:15.724Z,4.20
2018-07-28T19:24:44.094Z,4.33
2018-07-28T19:27:12.574Z,4.63
2018-07-28T19:29:43.390Z,4.17
2018-07-28T19:32:12.039Z,4.50
2018-07-28T19:34:40.830Z,5.40
2018-07-28T19:37:14.596Z,5.27
2018-07-28T19:39:42.938Z,6.10
2018-07-28T19:42:16.889Z,8.30
2018-07-28T19:44:45.223Z,4.90
2018-07-28T19:47:13.678Z,5.67
2018-07-28T19:49:42.029Z,4.80
2018-07-28T19:52:10.390Z,4.57
2018-07-28T19:54:38.867Z,4.93
2018-07-28T19:57:07.303Z,5.03
2018-07-28T19:59:35.659Z,4.40
2018-07-28T20:02:04.120Z,4.87
2018-07-28T20:04:33.174Z,4.73
2018-07-28T20:07:01.551Z,5.07
2018-07-28T20:09:29.940Z,4.37
2018-07-28T20:11:58.557Z,4.87
2018-07-28T20:14:27.085Z,4.73
2018-07-28T20:16:55.453Z,4.10
2018-07-28T20:19:26.273Z,4.20
2018-07-28T20:21:55.410Z,4.13
2018-07-28T20:24:24.343Z,4.37
2018-07-28T20:26:52.693Z,4.17
2018-07-28T20:29:21.674Z,4.80
2018-07-28T20:31:50.065Z,4.23
2018-07-28T20:34:18.708Z,3.83
2018-07-28T20:36:47.111Z,4.30
2018-07-28T20:39:15.187Z,4.57
2018-07-28T20:41:43.566Z,3.80
2018-07-28T20:44:12.092Z,3.10
2018-07-28T20:46:40.566Z,3.80
2018-07-28T20:49:08.932Z,3.93
2018-07-28T20:51:37.406Z,4.00
2018-07-28T20:54:06.194Z,4.20
2018-07-28T20:56:34.657Z,3.77
2018-07-28T20:59:03.087Z,4.37
2018-07-28T21:01:31.556Z,3.53
2018-07-28T21:03:59.911Z,3.53
2018-07-28T21:06:28.313Z,3.70
2018-07-28T21:08:56.700Z,3.70
2018-07-28T21:11:25.128Z,3.70
2018-07-28T21:13:53.581Z,4.30
2018-07-28T21:16:21.984Z,3.80
2018-07-28T21:18:50.331Z,3.70
2018-07-28T21:21:19.680Z,3.90
2018-07-28T21:23:48.184Z,3.93
2018-07-28T21:26:16.603Z,4.07
2018-07-28T21:28:44.968Z,4.10
2018-07-28T21:31:13.405Z,4.30
2018-07-28T21:33:41.809Z,3.60
2018-07-28T21:36:10.155Z,4.10
2018-07-28T21:38:38.516Z,4.13
2018-07-28T21:41:07.131Z,3.80
2018-07-28T21:43:35.553Z,3.70
2018-07-28T21:46:03.977Z,4.30
2018-07-28T21:48:32.416Z,3.53
2018-07-28T21:51:00.856Z,3.43
2018-07-28T21:53:29.340Z,3.30
2018-07-28T21:55:57.801Z,3.70
2018-07-28T21:58:26.287Z,3.20
2018-07-28T22:01:07.219Z,4.00
2018-07-28T22:03:35.931Z,3.30
2018-07-28T22:06:04.354Z,3.20
2018-07-28T22:08:32.820Z,3.60
2018-07-28T22:11:01.141Z,3.80
2018-07-28T22:13:29.986Z,3.30
2018-07-28T22:15:58.310Z,3.33
2018-07-28T22:18:26.824Z,3.60
2018-07-28T22:20:55.332Z,4.00
2018-07-28T22:23:23.842Z,3.90
2018-07-28T22:25:52.212Z,3.33
2018-07-28T22:28:20.741Z,3.63
2018-07-28T22:30:49.147Z,3.70
2018-07-28T22:33:17.515Z,3.50
2018-07-28T22:35:45.929Z,3.40
2018-07-28T22:38:14.347Z,3.63
2018-07-28T22:40:42.732Z,3.37
2018-07-28T22:43:11.087Z,3.80
2018-07-28T22:45:40.150Z,4.27
2018-07-28T22:48:08.526Z,4.07
2018-07-28T22:50:36.922Z,3.73
2018-07-28T22:53:05.302Z,3.00
2018-07-28T22:55:33.657Z,3.40
2018-07-28T22:58:02.097Z,3.37
2018-07-28T23:00:30.470Z,3.57
2018-07-28T23:02:58.826Z,3.33
2018-07-28T23:05:27.196Z,3.03
2018-07-28T23:07:55.544Z,3.70
2018-07-28T23:10:23.667Z,3.93
2018-07-28T23:12:52.032Z,3.67
2018-07-28T23:15:20.414Z,3.60
2018-07-28T23:17:48.801Z,3.73
2018-07-28T23:20:17.236Z,3.80
2018-07-28T23:22:45.647Z,3.90
2018-07-28T23:25:13.984Z,3.20
2018-07-28T23:27:42.455Z,3.47
2018-07-28T23:30:11.645Z,3.20
2018-07-28T23:32:40.413Z,3.10
2018-07-28T23:35:09.041Z,3.23
2018-07-28T23:37:37.441Z,3.47
2018-07-28T23:40:06.104Z,3.70
2018-07-28T23:42:34.620Z,3.70
2018-07-28T23:45:03.165Z,3.80
2018-07-28T23:47:31.566Z,3.67
2018-07-28T23:49:59.969Z,3.40
2018-07-28T23:52:28.437Z,3.70
2018-07-28T23:54:56.806Z,3.30
2018-07-28T23:57:25.193Z,3.50
2018-07-28T23:59:53.682Z,4.17
